Time;durP1;ratioP1;P1;durP2;ratioP2;P2;SDS_P1;SDS_P2;PMS_P1;PMS_P2;Temp;Humidity;BMP_temperature;BMP_pressure;BME280_temperature;BME280_humidity;BME280_pressure;Samples;Min_cycle;Max_cycle;Signal;HPM_P1;HPM_P2
2023/08/31 00:01:11;;;;;;;1.10;0.80;;;12.80;99.90;;;;;;5067777;28;20505;-77
2023/08/31 00:03:38;;;;;;;0.80;0.80;;;12.70;99.90;;;;;;5066567;28;20465;-76
2023/08/31 00:06:07;;;;;;;1.20;0.80;;;12.80;99.90;;;;;;5066509;28;20493;-76
2023/08/31 00:08:35;;;;;;;0.80;0.80;;;12.80;99.90;;;;;;5052151;28;20497;-76
2023/08/31 00:11:03;;;;;;;1.80;0.80;;;12.80;99.90;;;;;;5058765;28;20452;-80
2023/08/31 00:13:30;;;;;;;1.37;1.00;;;12.70;99.90;;;;;;5057075;28;20457;-77
2023/08/31 00:15:58;;;;;;;2.20;0.80;;;12.70;99.90;;;;;;5056338;28;20525;-77
2023/08/31 00:18:25;;;;;;;0.80;0.80;;;12.60;99.90;;;;;;5062786;28;20871;-77
2023/08/31 00:20:53;;;;;;;0.80;0.70;;;12.60;99.90;;;;;;5064685;28;20958;-75
2023/08/31 00:23:20;;;;;;;1.57;0.80;;;12.60;99.90;;;;;;5063612;28;20536;-76
2023/08/31 00:25:47;;;;;;;0.70;0.70;;;12.60;99.90;;;;;;5055509;28;20801;-79
2023/08/31 00:28:18;;;;;;;1.20;1.10;;;12.60;99.90;;;;;;5062589;28;21768;-76
2023/08/31 00:30:45;;;;;;;2.57;2.00;;;12.60;99.90;;;;;;5057939;28;20450;-77
2023/08/31 00:33:13;;;;;;;0.87;0.87;;;12.50;99.90;;;;;;5060345;28;20454;-78
2023/08/31 00:35:46;;;;;;;3.90;3.23;;;12.60;99.90;;;;;;5065669;28;20482;-77
2023/08/31 00:38:13;;;;;;;0.80;0.80;;;12.60;99.90;;;;;;5058358;28;20484;-78
2023/08/31 00:40:42;;;;;;;0.83;0.80;;;12.60;99.90;;;;;;5061604;28;20496;-76
2023/08/31 00:43:09;;;;;;;1.40;0.80;;;12.60;99.90;;;;;;5065207;28;20869;-81
2023/08/31 00:45:41;;;;;;;1.00;0.90;;;12.60;99.90;;;;;;5062347;28;20518;-76
2023/08/31 00:48:08;;;;;;;0.90;0.90;;;12.50;99.90;;;;;;5067061;28;20940;-78
2023/08/31 00:50:35;;;;;;;4.60;1.13;;;12.40;99.90;;;;;;5066797;28;20532;-77
2023/08/31 00:53:03;;;;;;;1.00;0.80;;;12.50;99.90;;;;;;5062491;28;20445;-81
2023/08/31 00:55:30;;;;;;;0.90;0.80;;;12.40;99.90;;;;;;5060934;28;20877;-78
2023/08/31 00:57:57;;;;;;;0.90;0.90;;;12.40;99.90;;;;;;5064316;28;20513;-79
2023/08/31 01:00:30;;;;;;;1.10;0.80;;;12.30;99.90;;;;;;5065007;28;20498;-78
2023/08/31 01:03:04;;;;;;;2.93;0.90;;;12.20;99.90;;;;;;5057645;28;20575;-77
2023/08/31 01:05:38;;;;;;;2.60;0.90;;;12.10;99.90;;;;;;5067217;28;20529;-76
2023/08/31 01:08:20;;;;;;;1.33;1.03;;;12.10;99.90;;;;;;5064293;28;20469;-78
2023/08/31 01:10:56;;;;;;;1.47;0.90;;;12.10;99.90;;;;;;5058713;28;20447;-76
2023/08/31 01:13:26;;;;;;;2.23;0.80;;;12.10;99.90;;;;;;5063869;28;20458;-78
2023/08/31 01:15:57;;;;;;;1.73;0.90;;;12.10;99.90;;;;;;5078783;28;20506;-75
2023/08/31 01:18:27;;;;;;;1.33;0.90;;;12.10;99.90;;;;;;5068070;28;20476;-78
2023/08/31 01:21:02;;;;;;;1.00;0.90;;;12.10;99.90;;;;;;5055956;28;21047;-75
2023/08/31 01:23:34;;;;;;;0.80;0.80;;;12.10;99.90;;;;;;5067050;28;20477;-80
2023/08/31 01:26:03;;;;;;;2.33;1.10;;;12.10;99.90;;;;;;5066385;28;20435;-76
2023/08/31 01:28:31;;;;;;;1.00;0.80;;;12.10;99.90;;;;;;5056251;28;20463;-78
2023/08/31 01:30:58;;;;;;;2.10;1.23;;;12.10;99.90;;;;;;5061488;28;20534;-79
2023/08/31 01:33:25;;;;;;;0.87;0.87;;;12.00;99.90;;;;;;5061180;28;20552;-77
2023/08/31 01:35:57;;;;;;;1.23;1.10;;;12.00;99.90;;;;;;5048931;28;20495;-79
2023/08/31 01:38:29;;;;;;;1.10;0.80;;;12.00;99.90;;;;;;5063691;28;20537;-77
2023/08/31 01:41:06;;;;;;;0.60;0.60;;;12.00;99.90;;;;;;5056370;28;20440;-77
2023/08/31 01:43:34;;;;;;;1.03;0.93;;;12.00;99.90;;;;;;5058561;28;21014;-78
2023/08/31 01:46:01;;;;;;;0.80;0.80;;;12.00;99.90;;;;;;5056783;28;20444;-78
2023/08/31 01:48:28;;;;;;;0.80;0.80;;;12.00;99.90;;;;;;5062528;28;20485;-81
2023/08/31 01:50:55;;;;;;;1.73;1.00;;;12.00;99.90;;;;;;5060389;28;21329;-80
2023/08/31 01:53:22;;;;;;;1.00;0.90;;;12.00;99.90;;;;;;5064707;28;20995;-80
2023/08/31 01:55:49;;;;;;;0.70;0.70;;;11.90;99.90;;;;;;5064483;28;20455;-79
2023/08/31 01:58:17;;;;;;;0.87;0.70;;;11.90;99.90;;;;;;5057035;28;20516;-79
2023/08/31 02:00:44;;;;;;;8.70;0.90;;;11.80;99.90;;;;;;5061682;28;20455;-78
2023/08/31 02:03:11;;;;;;;1.30;1.20;;;11.80;99.90;;;;;;5061084;28;20478;-79
2023/08/31 02:05:38;;;;;;;1.57;0.97;;;11.80;99.90;;;;;;5060745;28;20898;-78
2023/08/31 02:08:05;;;;;;;0.60;0.60;;;11.80;99.90;;;;;;5052234;28;20438;-79
2023/08/31 02:10:32;;;;;;;0.90;0.80;;;11.70;99.90;;;;;;5063374;28;21145;-76
2023/08/31 02:13:00;;;;;;;1.47;1.30;;;11.60;99.90;;;;;;5054988;28;20446;-78
2023/08/31 02:15:28;;;;;;;2.70;0.97;;;11.50;99.90;;;;;;5062439;28;20524;-77
2023/08/31 02:17:55;;;;;;;1.27;1.17;;;11.40;99.90;;;;;;5062763;28;20503;-78
2023/08/31 02:20:22;;;;;;;0.70;0.70;;;11.40;99.90;;;;;;5055532;28;20459;-78
2023/08/31 02:22:50;;;;;;;1.00;0.90;;;11.30;99.90;;;;;;5064891;28;20444;-79
2023/08/31 02:25:17;;;;;;;2.27;1.33;;;11.30;99.90;;;;;;5066313;28;20443;-77
2023/08/31 02:27:44;;;;;;;1.23;0.90;;;11.30;99.90;;;;;;5059710;28;20964;-77
2023/08/31 02:30:11;;;;;;;1.37;1.27;;;11.30;99.90;;;;;;5058312;28;20473;-77
2023/08/31 02:32:40;;;;;;;1.80;1.70;;;11.30;99.90;;;;;;5059682;28;20495;-78
2023/08/31 02:35:08;;;;;;;0.90;0.90;;;11.20;99.90;;;;;;5059732;28;20915;-77
2023/08/31 02:37:35;;;;;;;1.47;1.37;;;11.10;99.90;;;;;;5055003;28;20486;-78
2023/08/31 02:40:03;;;;;;;0.80;0.80;;;11.10;99.90;;;;;;5059148;28;20947;-77
2023/08/31 02:42:30;;;;;;;0.80;0.80;;;11.00;99.90;;;;;;5067214;28;20461;-76
2023/08/31 02:44:57;;;;;;;1.00;0.90;;;11.00;99.90;;;;;;5070220;28;20458;-78
2023/08/31 02:47:24;;;;;;;2.40;0.70;;;11.00;99.90;;;;;;5065429;28;21016;-78
2023/08/31 02:49:52;;;;;;;1.17;0.70;;;11.10;99.90;;;;;;5061391;28;20560;-78
2023/08/31 02:52:19;;;;;;;1.23;0.90;;;11.10;99.90;;;;;;5066301;28;20541;-79
2023/08/31 02:54:47;;;;;;;1.10;1.00;;;11.20;99.90;;;;;;5068076;28;20541;-79
2023/08/31 02:57:15;;;;;;;1.20;0.90;;;11.20;99.90;;;;;;5067185;28;20458;-77
2023/08/31 02:59:42;;;;;;;0.97;0.90;;;11.40;99.90;;;;;;5068246;28;20461;-77
2023/08/31 03:02:09;;;;;;;1.27;1.00;;;11.40;99.90;;;;;;5064352;28;20477;-78
2023/08/31 03:04:37;;;;;;;1.00;0.90;;;11.60;99.90;;;;;;5061264;28;20532;-76
2023/08/31 03:07:07;;;;;;;1.20;1.10;;;11.60;99.90;;;;;;5063583;28;20479;-77
2023/08/31 03:09:34;;;;;;;1.23;1.20;;;11.60;99.90;;;;;;5061992;28;20502;-76
2023/08/31 03:12:01;;;;;;;1.40;0.90;;;11.70;99.90;;;;;;5057462;28;20986;-77
2023/08/31 03:14:27;;;;;;;3.10;0.80;;;11.70;99.90;;;;;;5064093;28;21000;-80
2023/08/31 03:16:54;;;;;;;4.33;1.20;;;11.70;99.90;;;;;;5065602;28;20496;-76
2023/08/31 03:19:21;;;;;;;1.93;1.20;;;11.80;99.90;;;;;;5063606;28;21083;-77
2023/08/31 03:21:48;;;;;;;0.80;0.80;;;11.80;99.90;;;;;;5061413;28;20459;-77
2023/08/31 03:24:16;;;;;;;0.80;0.80;;;11.80;99.90;;;;;;5067558;28;20580;-80
2023/08/31 03:26:43;;;;;;;1.60;1.50;;;11.90;99.90;;;;;;5051392;28;20491;-77
2023/08/31 03:29:10;;;;;;;2.30;2.10;;;11.90;99.90;;;;;;5067597;28;20936;-76
2023/08/31 03:31:37;;;;;;;2.00;1.13;;;11.90;99.90;;;;;;5059313;28;20501;-76
2023/08/31 03:34:04;;;;;;;2.13;1.40;;;12.00;99.90;;;;;;5053568;28;20837;-77
2023/08/31 03:36:31;;;;;;;1.40;1.30;;;11.90;99.90;;;;;;5060782;28;20929;-76
2023/08/31 03:38:58;;;;;;;3.40;1.07;;;11.90;99.90;;;;;;5060394;28;20487;-76
2023/08/31 03:41:26;;;;;;;1.00;0.90;;;12.00;99.90;;;;;;5062850;28;20500;-80
2023/08/31 03:43:53;;;;;;;1.10;1.00;;;11.90;99.90;;;;;;5060375;28;21017;-78
2023/08/31 03:46:20;;;;;;;1.93;1.00;;;11.90;99.90;;;;;;5065300;28;20448;-77
2023/08/31 03:48:47;;;;;;;1.40;1.30;;;12.00;99.90;;;;;;5064010;28;20949;-78
2023/08/31 03:51:14;;;;;;;1.93;1.03;;;12.00;99.90;;;;;;5069235;28;20479;-77
2023/08/31 03:53:41;;;;;;;1.03;0.93;;;11.90;99.90;;;;;;5065475;28;20506;-79
2023/08/31 03:56:08;;;;;;;2.37;1.13;;;12.00;99.90;;;;;;5068780;28;20939;-81
2023/08/31 03:58:37;;;;;;;1.70;1.60;;;12.00;99.90;;;;;;5063437;28;20563;-77
2023/08/31 04:01:05;;;;;;;1.30;1.20;;;12.10;99.90;;;;;;5061751;28;20880;-78
2023/08/31 04:03:32;;;;;;;2.40;1.23;;;12.10;99.90;;;;;;5067896;28;20471;-80
2023/08/31 04:05:59;;;;;;;1.20;1.10;;;12.10;99.90;;;;;;5058590;28;20536;-78
2023/08/31 04:08:26;;;;;;;1.10;1.00;;;12.10;99.90;;;;;;5069916;28;20447;-75
2023/08/31 04:10:53;;;;;;;2.50;1.93;;;12.00;99.90;;;;;;5059954;28;20456;-78
2023/08/31 04:13:19;;;;;;;1.33;1.23;;;12.00;99.90;;;;;;5050825;28;20448;-76
2023/08/31 04:15:48;;;;;;;1.67;1.00;;;12.00;99.90;;;;;;5059029;28;21269;-78
2023/08/31 04:18:15;;;;;;;1.10;1.00;;;12.00;99.90;;;;;;5068532;28;20487;-77
2023/08/31 04:20:51;;;;;;;1.33;1.23;;;11.90;99.90;;;;;;5062295;28;20915;-79
2023/08/31 04:23:19;;;;;;;3.17;2.23;;;11.80;99.90;;;;;;5063411;28;20478;-78
2023/08/31 04:25:46;;;;;;;1.00;0.80;;;11.70;99.90;;;;;;5063441;28;20451;-78
2023/08/31 04:28:13;;;;;;;1.50;1.10;;;11.70;99.90;;;;;;5061234;28;20504;-81
2023/08/31 04:30:41;;;;;;;1.33;1.23;;;11.60;99.90;;;;;;5058499;28;20975;-81
2023/08/31 04:33:09;;;;;;;2.30;0.97;;;11.60;99.90;;;;;;5062785;28;20805;-78
2023/08/31 04:35:36;;;;;;;1.00;0.80;;;11.50;99.90;;;;;;5067127;28;20838;-76
2023/08/31 04:38:03;;;;;;;1.00;0.97;;;11.50;99.90;;;;;;5055532;28;20537;-78
2023/08/31 04:40:30;;;;;;;1.10;0.80;;;11.50;99.90;;;;;;5058403;28;20470;-77
2023/08/31 04:42:57;;;;;;;3.63;1.33;;;11.40;99.90;;;;;;5061051;28;20453;-79
2023/08/31 04:45:24;;;;;;;1.87;1.10;;;11.50;99.90;;;;;;5066956;28;21036;-78
2023/08/31 04:47:51;;;;;;;1.50;1.23;;;11.50;99.90;;;;;;5056189;28;20500;-79
2023/08/31 04:50:20;;;;;;;1.57;1.40;;;11.50;99.90;;;;;;5064797;28;20670;-81
2023/08/31 04:52:47;;;;;;;1.30;1.10;;;11.50;99.90;;;;;;5067228;28;20470;-77
2023/08/31 04:55:14;;;;;;;1.97;1.30;;;11.70;99.90;;;;;;5064293;28;20446;-77
2023/08/31 04:57:41;;;;;;;5.03;1.50;;;11.70;99.90;;;;;;5067003;28;20931;-76
2023/08/31 05:00:10;;;;;;;0.70;0.70;;;11.80;99.90;;;;;;5059368;28;20531;-82
2023/08/31 05:02:37;;;;;;;0.87;0.83;;;11.80;99.90;;;;;;5054236;28;20519;-75
2023/08/31 05:05:05;;;;;;;1.20;0.80;;;11.90;99.90;;;;;;5059055;28;20643;-77
2023/08/31 05:07:33;;;;;;;1.07;0.90;;;11.90;99.90;;;;;;5059878;28;20505;-79
2023/08/31 05:10:00;;;;;;;1.03;0.90;;;11.90;99.90;;;;;;5067229;28;21064;-78
2023/08/31 05:12:27;;;;;;;1.13;1.03;;;12.00;99.90;;;;;;5059028;28;20654;-76
2023/08/31 05:14:54;;;;;;;2.97;0.93;;;12.00;99.90;;;;;;5064250;28;20460;-77
2023/08/31 05:17:23;;;;;;;1.17;1.07;;;12.10;99.90;;;;;;5062467;28;20568;-75
2023/08/31 05:19:50;;;;;;;1.20;1.10;;;12.20;99.90;;;;;;5063753;28;20486;-78
2023/08/31 05:22:17;;;;;;;2.40;1.40;;;12.40;99.90;;;;;;5063211;28;20551;-76
2023/08/31 05:24:45;;;;;;;1.10;1.00;;;12.70;99.90;;;;;;5064376;28;20502;-77
2023/08/31 05:27:12;;;;;;;2.90;1.17;;;12.80;99.90;;;;;;5066909;28;20539;-76
2023/08/31 05:29:39;;;;;;;1.53;1.00;;;12.90;99.90;;;;;;5062956;28;20994;-78
2023/08/31 05:32:07;;;;;;;1.60;1.20;;;13.00;99.90;;;;;;5068091;28;20460;-78
2023/08/31 05:34:37;;;;;;;1.10;1.00;;;13.20;99.90;;;;;;5060844;28;20534;-75
2023/08/31 05:37:05;;;;;;;1.30;0.97;;;13.40;99.90;;;;;;5070568;28;20500;-76
2023/08/31 05:39:32;;;;;;;3.87;1.07;;;13.60;99.90;;;;;;5066157;28;20479;-76
2023/08/31 05:42:01;;;;;;;1.40;1.30;;;13.70;99.90;;;;;;5071477;28;20458;-76
2023/08/31 05:44:28;;;;;;;0.80;0.80;;;13.90;99.90;;;;;;5059738;28;20546;-78
2023/08/31 05:46:55;;;;;;;1.23;1.13;;;13.80;99.90;;;;;;5058100;28;20569;-76
2023/08/31 05:49:21;;;;;;;1.20;0.70;;;13.90;99.90;;;;;;5067600;28;20558;-77
2023/08/31 05:51:48;;;;;;;4.93;1.27;;;14.00;99.90;;;;;;5061519;28;20929;-78
2023/08/31 05:54:16;;;;;;;1.03;0.90;;;14.10;99.90;;;;;;5064623;28;20484;-75
2023/08/31 05:56:42;;;;;;;1.63;0.80;;;14.10;99.90;;;;;;5065710;28;20499;-77
2023/08/31 05:59:11;;;;;;;1.77;1.07;;;14.20;99.90;;;;;;5063561;28;20953;-75
2023/08/31 06:01:38;;;;;;;1.30;1.20;;;14.30;99.90;;;;;;5065262;28;20528;-78
2023/08/31 06:04:05;;;;;;;1.83;1.60;;;14.20;99.90;;;;;;5062957;28;20548;-77
2023/08/31 06:06:33;;;;;;;3.10;1.07;;;14.30;99.90;;;;;;5064292;28;20542;-77
2023/08/31 06:09:00;;;;;;;1.17;0.97;;;14.30;99.90;;;;;;5062319;28;20548;-78
2023/08/31 06:11:27;;;;;;;0.97;0.90;;;14.30;99.90;;;;;;5064810;28;20465;-77
2023/08/31 06:13:54;;;;;;;2.27;1.50;;;14.40;99.90;;;;;;5058800;28;20513;-83
2023/08/31 06:16:22;;;;;;;1.30;0.97;;;14.30;99.90;;;;;;5054996;28;20502;-76
2023/08/31 06:18:49;;;;;;;1.00;1.00;;;14.40;99.90;;;;;;5058475;28;20490;-75
2023/08/31 06:21:16;;;;;;;1.87;0.90;;;14.40;99.90;;;;;;5066756;28;20948;-74
2023/08/31 06:23:43;;;;;;;1.10;1.10;;;14.40;99.90;;;;;;5057420;28;21106;-75
2023/08/31 06:26:11;;;;;;;1.20;0.97;;;14.40;99.90;;;;;;5057467;28;20485;-76
2023/08/31 06:28:38;;;;;;;1.27;1.17;;;14.40;99.90;;;;;;5057990;28;20476;-75
2023/08/31 06:31:05;;;;;;;1.57;1.47;;;14.50;99.90;;;;;;5062157;28;20800;-76
2023/08/31 06:33:33;;;;;;;1.30;1.20;;;14.50;99.90;;;;;;5062658;28;20510;-76
2023/08/31 06:36:00;;;;;;;1.07;1.00;;;14.60;99.90;;;;;;5063399;28;20535;-75
2023/08/31 06:38:27;;;;;;;2.00;1.27;;;14.60;99.90;;;;;;5060718;28;20521;-75
2023/08/31 06:40:58;;;;;;;0.90;0.90;;;14.80;99.90;;;;;;5073370;28;20522;-75
2023/08/31 06:43:26;;;;;;;1.77;1.20;;;14.80;99.90;;;;;;5061377;28;20460;-77
2023/08/31 06:45:53;;;;;;;1.30;1.00;;;15.00;99.90;;;;;;5064182;28;20489;-79
2023/08/31 06:48:20;;;;;;;2.00;1.80;;;14.90;99.90;;;;;;5055712;28;20878;-75
2023/08/31 06:50:49;;;;;;;2.20;1.90;;;15.00;99.90;;;;;;5060212;28;20469;-75
2023/08/31 06:53:16;;;;;;;0.87;0.83;;;14.80;99.90;;;;;;5067034;28;20474;-77
2023/08/31 06:55:43;;;;;;;1.40;1.30;;;14.90;99.90;;;;;;5065946;28;20458;-76
2023/08/31 06:58:11;;;;;;;1.47;1.37;;;15.10;99.90;;;;;;5067535;28;20447;-75
2023/08/31 07:00:37;;;;;;;0.70;0.70;;;15.30;99.90;;;;;;5069182;28;20482;-74
2023/08/31 07:03:06;;;;;;;1.90;1.00;;;15.40;99.90;;;;;;5068394;28;20502;-76
2023/08/31 07:05:36;;;;;;;0.80;0.80;;;15.30;99.90;;;;;;5070216;28;21102;-75
2023/08/31 07:08:05;;;;;;;0.70;0.60;;;15.20;99.90;;;;;;5071794;28;20461;-78
2023/08/31 07:10:32;;;;;;;1.43;0.70;;;15.20;99.90;;;;;;5060492;28;20489;-77
2023/08/31 07:12:58;;;;;;;0.73;0.57;;;15.20;99.90;;;;;;5067368;28;20465;-77
2023/08/31 07:15:26;;;;;;;2.30;0.70;;;15.10;99.90;;;;;;5062750;28;20827;-78
2023/08/31 07:17:53;;;;;;;1.00;0.90;;;15.10;99.90;;;;;;5064167;28;20474;-75
2023/08/31 07:20:20;;;;;;;1.27;1.17;;;15.60;99.90;;;;;;5069805;28;20479;-78
2023/08/31 07:22:47;;;;;;;0.70;0.70;;;15.80;99.90;;;;;;5056714;28;20557;-76
2023/08/31 07:25:15;;;;;;;1.20;0.70;;;16.00;99.90;;;;;;5057886;28;20454;-78
2023/08/31 07:27:42;;;;;;;0.80;0.60;;;16.10;99.90;;;;;;5064865;28;20465;-76
2023/08/31 07:30:10;;;;;;;0.80;0.80;;;16.00;99.90;;;;;;5061394;28;20495;-76
2023/08/31 07:32:37;;;;;;;0.63;0.53;;;16.20;99.90;;;;;;5060296;28;21008;-75
2023/08/31 07:35:05;;;;;;;0.93;0.60;;;16.30;99.90;;;;;;5049639;28;20440;-76
2023/08/31 07:37:32;;;;;;;0.70;0.60;;;16.10;99.90;;;;;;5057957;28;20539;-75
2023/08/31 07:39:59;;;;;;;0.50;0.50;;;16.00;99.90;;;;;;5062957;28;20486;-77
2023/08/31 07:42:27;;;;;;;1.13;0.67;;;16.20;99.90;;;;;;5064362;28;20556;-76
2023/08/31 07:44:54;;;;;;;1.80;0.73;;;16.20;99.90;;;;;;5071337;28;20461;-77
2023/08/31 07:47:21;;;;;;;0.60;0.60;;;16.50;99.90;;;;;;5067365;28;20557;-78
2023/08/31 07:49:48;;;;;;;0.70;0.60;;;16.40;99.90;;;;;;5063561;28;20571;-77
2023/08/31 07:52:15;;;;;;;0.77;0.57;;;16.40;99.90;;;;;;5068781;28;20533;-77
2023/08/31 07:54:42;;;;;;;0.80;0.60;;;16.40;99.90;;;;;;5068327;28;21122;-77
2023/08/31 07:57:09;;;;;;;1.17;0.60;;;16.50;99.90;;;;;;5063042;28;20539;-76
2023/08/31 07:59:39;;;;;;;0.50;0.50;;;16.70;99.90;;;;;;5065765;28;20572;-77
2023/08/31 08:02:06;;;;;;;0.50;0.40;;;16.80;99.90;;;;;;5064483;28;20494;-76
2023/08/31 08:04:33;;;;;;;0.50;0.50;;;16.60;99.90;;;;;;5058498;28;21256;-76
2023/08/31 08:07:00;;;;;;;0.70;0.70;;;16.90;99.90;;;;;;5059415;28;20521;-76
2023/08/31 08:09:28;;;;;;;0.80;0.80;;;16.90;99.90;;;;;;5061899;28;20956;-76
2023/08/31 08:11:55;;;;;;;0.70;0.70;;;17.00;99.90;;;;;;5062868;28;20440;-76
2023/08/31 08:14:22;;;;;;;0.60;0.50;;;17.10;99.90;;;;;;5058051;28;20453;-78
2023/08/31 08:16:50;;;;;;;0.83;0.83;;;17.30;99.90;;;;;;5056333;28;20491;-76
2023/08/31 08:19:23;;;;;;;0.60;0.60;;;17.20;99.90;;;;;;5062724;28;20480;-78
2023/08/31 08:21:50;;;;;;;0.93;0.83;;;17.40;99.90;;;;;;5061705;28;20455;-77
2023/08/31 08:24:17;;;;;;;0.87;0.60;;;17.70;99.90;;;;;;5061235;28;21063;-75
2023/08/31 08:26:43;;;;;;;0.80;0.60;;;17.90;99.90;;;;;;5065776;28;20533;-76
2023/08/31 08:29:10;;;;;;;0.70;0.70;;;18.10;99.90;;;;;;5061990;28;21270;-76
2023/08/31 08:31:37;;;;;;;0.80;0.70;;;18.00;99.90;;;;;;5072573;28;20467;-77
2023/08/31 08:34:07;;;;;;;0.60;0.50;;;18.00;99.90;;;;;;5079072;28;20464;-77
2023/08/31 08:36:34;;;;;;;0.80;0.73;;;17.90;99.90;;;;;;5067889;28;20548;-76
2023/08/31 08:39:00;;;;;;;4.40;2.73;;;18.10;99.90;;;;;;5057538;28;20812;-76
2023/08/31 08:41:30;;;;;;;0.90;0.87;;;18.60;99.90;;;;;;5062900;28;20457;-76
2023/08/31 08:44:03;;;;;;;0.70;0.60;;;18.40;99.90;;;;;;5057298;28;20455;-77
2023/08/31 08:46:31;;;;;;;0.70;0.70;;;18.10;99.90;;;;;;5064312;28;20464;-83
2023/08/31 08:49:00;;;;;;;0.70;0.57;;;17.70;99.90;;;;;;5063582;28;20468;-76
2023/08/31 08:51:30;;;;;;;0.67;0.50;;;17.50;99.90;;;;;;5061758;28;20455;-78
2023/08/31 08:53:59;;;;;;;2.80;0.60;;;17.50;99.90;;;;;;5067232;28;20472;-78
2023/08/31 08:56:27;;;;;;;0.97;0.60;;;18.00;99.90;;;;;;5066186;28;20436;-77
2023/08/31 08:58:54;;;;;;;0.80;0.80;;;18.50;99.90;;;;;;5066285;28;20551;-76
2023/08/31 09:01:23;;;;;;;0.80;0.80;;;18.80;99.90;;;;;;5065986;28;20522;-76
2023/08/31 09:03:50;;;;;;;1.00;0.63;;;18.90;99.90;;;;;;5065439;28;21019;-76
2023/08/31 09:06:17;;;;;;;0.67;0.53;;;19.30;99.90;;;;;;5060570;28;20533;-76
2023/08/31 09:08:53;;;;;;;0.80;0.50;;;19.30;99.90;;;;;;5065064;28;20445;-78
2023/08/31 09:11:23;;;;;;;2.07;0.67;;;19.20;99.90;;;;;;5050178;28;20530;-76
2023/08/31 09:13:51;;;;;;;1.07;0.53;;;19.20;99.90;;;;;;5060157;28;20472;-79
2023/08/31 09:16:26;;;;;;;0.50;0.50;;;19.30;99.90;;;;;;5060934;28;20446;-78
2023/08/31 09:18:53;;;;;;;0.50;0.50;;;19.20;99.90;;;;;;5059584;28;20521;-76
2023/08/31 09:21:21;;;;;;;6.90;0.90;;;18.90;99.90;;;;;;5061645;28;20570;-75
2023/08/31 09:23:57;;;;;;;0.70;0.40;;;18.40;99.90;;;;;;5063009;28;20471;-76
2023/08/31 09:26:24;;;;;;;0.60;0.60;;;18.10;99.90;;;;;;5059447;28;20443;-76
2023/08/31 09:28:51;;;;;;;0.70;0.60;;;18.00;99.90;;;;;;5062749;28;20496;-78
2023/08/31 09:31:20;;;;;;;0.70;0.60;;;18.20;99.90;;;;;;5062220;28;20473;-76
2023/08/31 09:33:52;;;;;;;1.10;0.83;;;18.20;99.90;;;;;;5064124;28;20542;-77
2023/08/31 09:36:20;;;;;;;0.70;0.50;;;18.10;99.90;;;;;;5060048;28;20532;-78
2023/08/31 09:38:47;;;;;;;0.80;0.60;;;17.90;99.90;;;;;;5060206;28;20454;-76
2023/08/31 09:41:16;;;;;;;0.60;0.60;;;18.00;99.90;;;;;;5061364;28;20838;-77
2023/08/31 09:43:43;;;;;;;0.60;0.50;;;18.10;99.90;;;;;;5059885;28;20530;-78
2023/08/31 09:46:13;;;;;;;0.70;0.60;;;18.60;99.90;;;;;;5064711;28;20512;-77
2023/08/31 09:48:42;;;;;;;0.80;0.80;;;18.80;99.90;;;;;;5059329;28;20489;-75
2023/08/31 09:51:11;;;;;;;0.83;0.80;;;18.60;99.90;;;;;;5063899;28;20541;-77
2023/08/31 09:53:39;;;;;;;1.03;0.70;;;18.70;99.90;;;;;;5065203;28;20440;-76
2023/08/31 09:56:07;;;;;;;0.60;0.60;;;18.80;99.90;;;;;;5062302;28;20521;-76
2023/08/31 09:58:35;;;;;;;0.70;0.60;;;18.60;99.90;;;;;;5069248;28;20459;-77
2023/08/31 10:01:03;;;;;;;0.60;0.60;;;18.60;99.90;;;;;;5072969;28;20537;-77
2023/08/31 10:03:31;;;;;;;0.80;0.60;;;18.50;99.90;;;;;;5061802;28;20526;-75
2023/08/31 10:06:00;;;;;;;0.80;0.70;;;18.50;99.90;;;;;;5063085;28;20541;-75
2023/08/31 10:08:31;;;;;;;1.10;1.00;;;18.40;99.90;;;;;;5068779;28;20486;-77
2023/08/31 10:11:00;;;;;;;1.53;0.90;;;18.20;99.90;;;;;;5066429;28;20538;-76
2023/08/31 10:13:31;;;;;;;0.90;0.83;;;18.60;99.90;;;;;;5063949;28;20541;-75
2023/08/31 10:16:00;;;;;;;1.10;0.83;;;18.90;99.90;;;;;;5065672;28;20459;-77
2023/08/31 10:18:28;;;;;;;0.80;0.63;;;19.40;99.90;;;;;;5067924;28;21093;-78
2023/08/31 10:20:55;;;;;;;0.67;0.50;;;19.20;99.90;;;;;;5062489;28;21021;-78
2023/08/31 10:23:23;;;;;;;0.80;0.60;;;19.40;99.90;;;;;;5067118;28;20524;-77
2023/08/31 10:26:04;;;;;;;0.77;0.70;;;19.30;99.90;;;;;;5061491;28;20608;-77
2023/08/31 10:28:40;;;;;;;0.60;0.50;;;19.30;99.90;;;;;;5061088;28;20546;-76
2023/08/31 10:31:10;;;;;;;0.60;0.40;;;19.20;99.90;;;;;;5063572;28;20502;-76
2023/08/31 10:33:41;;;;;;;1.83;0.50;;;18.90;99.90;;;;;;5070448;28;20484;-77
2023/08/31 10:36:12;;;;;;;1.00;0.70;;;19.10;99.90;;;;;;5063617;28;20547;-77
2023/08/31 10:38:39;;;;;;;1.17;0.60;;;19.40;99.90;;;;;;5073021;28;20535;-76
2023/08/31 10:41:20;;;;;;;0.70;0.50;;;19.60;99.90;;;;;;5053753;28;20560;-78
2023/08/31 10:43:50;;;;;;;6.00;0.67;;;19.70;99.90;;;;;;5063619;28;20540;-77
2023/08/31 10:46:20;;;;;;;1.63;0.70;;;19.60;99.90;;;;;;5052985;28;20981;-76
2023/08/31 10:48:51;;;;;;;0.70;0.50;;;19.40;99.90;;;;;;5055501;28;20720;-78
2023/08/31 10:51:18;;;;;;;1.47;0.60;;;19.20;99.90;;;;;;5065885;28;20545;-78
2023/08/31 10:53:46;;;;;;;0.83;0.50;;;18.80;99.90;;;;;;5065334;28;20482;-77
2023/08/31 10:56:16;;;;;;;0.63;0.60;;;18.90;99.90;;;;;;5066647;28;20456;-77
2023/08/31 10:58:44;;;;;;;0.90;0.50;;;18.90;99.90;;;;;;5064041;28;20510;-75
2023/08/31 11:01:12;;;;;;;1.00;0.50;;;18.70;99.90;;;;;;5063395;28;20529;-76
2023/08/31 11:04:10;;;;;;;1.20;0.50;;;18.60;99.90;;;;;;5061891;28;20881;-76
2023/08/31 11:06:37;;;;;;;0.60;0.57;;;18.40;99.90;;;;;;5063581;28;20588;-75
2023/08/31 11:09:04;;;;;;;0.53;0.50;;;18.60;99.90;;;;;;5063068;28;20545;-75
2023/08/31 11:11:38;;;;;;;1.33;0.60;;;18.70;99.90;;;;;;5063435;28;20528;-75
2023/08/31 11:14:05;;;;;;;0.50;0.50;;;18.60;99.90;;;;;;5064176;28;20462;-79
2023/08/31 11:16:32;;;;;;;0.93;0.43;;;18.50;99.90;;;;;;5065112;28;20455;-76
2023/08/31 11:18:59;;;;;;;1.10;1.00;;;18.60;99.90;;;;;;5066014;28;20506;-77
2023/08/31 11:21:28;;;;;;;2.27;0.60;;;18.50;99.90;;;;;;5065535;28;20556;-77
2023/08/31 11:23:58;;;;;;;3.03;0.80;;;18.40;99.90;;;;;;5065895;28;20566;-75
2023/08/31 11:26:25;;;;;;;0.60;0.50;;;18.50;99.90;;;;;;5068876;28;20455;-75
2023/08/31 11:28:52;;;;;;;0.63;0.63;;;18.40;99.90;;;;;;5074823;28;20485;-77
2023/08/31 11:31:25;;;;;;;0.83;0.50;;;18.40;99.90;;;;;;5062860;28;20525;-76
2023/08/31 11:33:53;;;;;;;2.70;0.90;;;18.40;99.90;;;;;;5067699;28;20459;-74
2023/08/31 11:36:20;;;;;;;1.37;0.60;;;18.30;99.90;;;;;;5064689;28;20545;-82
2023/08/31 11:38:50;;;;;;;1.27;0.70;;;18.30;99.90;;;;;;5066840;28;20460;-75
2023/08/31 11:41:17;;;;;;;1.97;0.70;;;18.50;99.90;;;;;;5065638;28;20493;-75
2023/08/31 11:43:45;;;;;;;1.10;0.83;;;18.70;99.90;;;;;;5066667;28;20472;-75
2023/08/31 11:46:13;;;;;;;0.70;0.70;;;18.60;99.90;;;;;;5064755;28;20474;-75
2023/08/31 11:48:40;;;;;;;0.83;0.50;;;18.80;99.90;;;;;;5051541;28;20502;-76
2023/08/31 11:51:08;;;;;;;2.10;0.60;;;19.00;99.90;;;;;;5064056;28;20991;-75
2023/08/31 11:53:35;;;;;;;0.63;0.57;;;19.40;99.90;;;;;;5050577;28;20724;-75
2023/08/31 11:56:05;;;;;;;2.20;0.90;;;19.30;99.90;;;;;;5061513;28;20462;-75
2023/08/31 11:58:32;;;;;;;0.90;0.63;;;19.40;99.90;;;;;;5062243;28;21613;-75
2023/08/31 12:01:00;;;;;;;2.30;0.70;;;19.40;99.90;;;;;;5064069;28;20476;-75
2023/08/31 12:03:28;;;;;;;0.83;0.60;;;19.40;99.90;;;;;;5063379;28;20458;-75
2023/08/31 12:05:58;;;;;;;1.77;0.60;;;19.30;99.90;;;;;;5062759;28;20545;-78
2023/08/31 12:08:26;;;;;;;0.70;0.60;;;19.40;99.90;;;;;;5066989;28;20444;-74
2023/08/31 12:10:54;;;;;;;0.70;0.70;;;19.50;99.90;;;;;;5062141;28;20545;-74
2023/08/31 12:13:28;;;;;;;4.00;0.60;;;19.60;99.90;;;;;;5072411;28;20493;-75
2023/08/31 12:15:56;;;;;;;2.00;0.60;;;19.70;99.90;;;;;;5061553;28;20460;-75
2023/08/31 12:18:23;;;;;;;0.90;0.77;;;19.90;99.90;;;;;;5060773;28;20465;-76
2023/08/31 12:20:52;;;;;;;1.63;0.53;;;20.20;99.90;;;;;;5059296;28;20639;-76
2023/08/31 12:23:21;;;;;;;1.37;0.50;;;20.30;99.40;;;;;;5059059;28;20529;-75
2023/08/31 12:25:52;;;;;;;0.50;0.50;;;20.40;99.90;;;;;;5056925;28;21201;-74
2023/08/31 12:28:20;;;;;;;0.80;0.60;;;20.20;99.70;;;;;;5066480;28;20520;-76
2023/08/31 12:30:51;;;;;;;1.00;0.60;;;20.20;99.60;;;;;;5072939;28;20523;-78
2023/08/31 12:33:21;;;;;;;0.87;0.60;;;20.10;99.10;;;;;;5061695;28;21022;-76
2023/08/31 12:35:48;;;;;;;0.80;0.60;;;20.00;99.90;;;;;;5061194;28;21055;-75
2023/08/31 12:38:15;;;;;;;1.10;0.40;;;20.00;99.90;;;;;;5064216;28;20478;-76
2023/08/31 12:40:42;;;;;;;0.60;0.40;;;19.80;99.30;;;;;;5070081;28;20472;-77
2023/08/31 12:43:10;;;;;;;1.73;0.70;;;19.50;99.90;;;;;;5064126;28;20444;-75
2023/08/31 12:45:37;;;;;;;1.60;0.50;;;19.10;98.90;;;;;;5063676;28;20538;-77
2023/08/31 12:48:06;;;;;;;0.90;0.70;;;19.30;99.70;;;;;;5059945;28;20454;-77
2023/08/31 12:50:33;;;;;;;0.70;0.53;;;19.50;99.90;;;;;;5063872;28;20466;-75
2023/08/31 12:53:00;;;;;;;1.53;0.70;;;19.70;99.60;;;;;;5088914;28;20467;-74